sensor_id;sensor_type;location;lat;lon;timestamp;temperature;humidity
77985;DHT22;67177;47.240;-1.546;2023-06-10T00:02:03;21.10;77.60
77985;DHT22;67177;47.240;-1.546;2023-06-10T00:04:29;21.10;77.60
77985;DHT22;67177;47.240;-1.546;2023-06-10T00:06:55;21.00;77.60
77985;DHT22;67177;47.240;-1.546;2023-06-10T00:09:21;21.00;77.50
77985;DHT22;67177;47.240;-1.546;2023-06-10T00:11:47;21.00;77.50
77985;DHT22;67177;47.240;-1.546;2023-06-10T00:14:13;20.90;77.60
77985;DHT22;67177;47.240;-1.546;2023-06-10T00:16:38;20.90;77.70
77985;DHT22;67177;47.240;-1.546;2023-06-10T00:19:04;20.90;77.70
77985;DHT22;67177;47.240;-1.546;2023-06-10T00:21:31;20.90;77.70
77985;DHT22;67177;47.240;-1.546;2023-06-10T00:24:06;20.80;77.70
77985;DHT22;67177;47.240;-1.546;2023-06-10T00:26:35;20.80;77.70
77985;DHT22;67177;47.240;-1.546;2023-06-10T00:29:01;20.80;77.70
77985;DHT22;67177;47.240;-1.546;2023-06-10T00:31:26;20.80;77.60
77985;DHT22;67177;47.240;-1.546;2023-06-10T00:33:52;20.80;77.50
77985;DHT22;67177;47.240;-1.546;2023-06-10T00:36:18;20.80;77.50
77985;DHT22;67177;47.240;-1.546;2023-06-10T00:38:43;20.80;77.30
77985;DHT22;67177;47.240;-1.546;2023-06-10T00:41:09;20.80;77.20
77985;DHT22;67177;47.240;-1.546;2023-06-10T00:43:35;20.70;77.20
77985;DHT22;67177;47.240;-1.546;2023-06-10T00:46:01;20.70;77.10
77985;DHT22;67177;47.240;-1.546;2023-06-10T00:48:27;20.70;77.10
77985;DHT22;67177;47.240;-1.546;2023-06-10T00:50:53;20.70;76.90
77985;DHT22;67177;47.240;-1.546;2023-06-10T00:53:19;20.70;76.90
77985;DHT22;67177;47.240;-1.546;2023-06-10T00:55:46;20.70;76.90
77985;DHT22;67177;47.240;-1.546;2023-06-10T00:58:12;20.70;76.90
77985;DHT22;67177;47.240;-1.546;2023-06-10T01:00:38;20.70;76.90
77985;DHT22;67177;47.240;-1.546;2023-06-10T01:03:04;20.60;76.90
77985;DHT22;67177;47.240;-1.546;2023-06-10T01:05:36;20.60;76.90
77985;DHT22;67177;47.240;-1.546;2023-06-10T01:08:29;20.60;76.90
77985;DHT22;67177;47.240;-1.546;2023-06-10T01:11:00;20.60;77.00
77985;DHT22;67177;47.240;-1.546;2023-06-10T01:13:28;20.60;76.90
77985;DHT22;67177;47.240;-1.546;2023-06-10T01:15:55;20.60;76.90
77985;DHT22;67177;47.240;-1.546;2023-06-10T01:18:21;20.60;76.90
77985;DHT22;67177;47.240;-1.546;2023-06-10T01:20:48;20.60;76.90
77985;DHT22;67177;47.240;-1.546;2023-06-10T01:23:15;20.60;77.00
77985;DHT22;67177;47.240;-1.546;2023-06-10T01:25:57;20.50;77.10
77985;DHT22;67177;47.240;-1.546;2023-06-10T01:28:35;20.60;77.10
77985;DHT22;67177;47.240;-1.546;2023-06-10T01:33:46;20.50;77.10
77985;DHT22;67177;47.240;-1.546;2023-06-10T01:36:13;20.50;77.10
77985;DHT22;67177;47.240;-1.546;2023-06-10T01:38:43;20.50;77.10
77985;DHT22;67177;47.240;-1.546;2023-06-10T01:41:11;20.50;77.10
77985;DHT22;67177;47.240;-1.546;2023-06-10T01:43:38;20.50;77.10
77985;DHT22;67177;47.240;-1.546;2023-06-10T01:46:04;20.50;76.90
77985;DHT22;67177;47.240;-1.546;2023-06-10T01:48:32;20.50;76.90
77985;DHT22;67177;47.240;-1.546;2023-06-10T01:50:57;20.50;77.00
77985;DHT22;67177;47.240;-1.546;2023-06-10T01:53:23;20.50;76.90
77985;DHT22;67177;47.240;-1.546;2023-06-10T01:55:49;20.50;76.90
77985;DHT22;67177;47.240;-1.546;2023-06-10T01:58:16;20.40;76.90
77985;DHT22;67177;47.240;-1.546;2023-06-10T02:00:41;20.40;76.90
77985;DHT22;67177;47.240;-1.546;2023-06-10T02:03:07;20.40;77.10
77985;DHT22;67177;47.240;-1.546;2023-06-10T02:05:33;20.30;77.00
77985;DHT22;67177;47.240;-1.546;2023-06-10T02:07:58;20.30;77.10
77985;DHT22;67177;47.240;-1.546;2023-06-10T02:10:24;20.20;77.00
77985;DHT22;67177;47.240;-1.546;2023-06-10T02:12:50;20.20;77.00
77985;DHT22;67177;47.240;-1.546;2023-06-10T02:15:16;20.10;77.10
77985;DHT22;67177;47.240;-1.546;2023-06-10T02:17:41;20.10;77.10
77985;DHT22;67177;47.240;-1.546;2023-06-10T02:20:07;20.10;77.10
77985;DHT22;67177;47.240;-1.546;2023-06-10T02:22:37;20.10;77.20
77985;DHT22;67177;47.240;-1.546;2023-06-10T02:25:03;20.00;77.20
77985;DHT22;67177;47.240;-1.546;2023-06-10T02:27:29;20.00;77.20
77985;DHT22;67177;47.240;-1.546;2023-06-10T02:29:56;20.00;77.20
77985;DHT22;67177;47.240;-1.546;2023-06-10T02:32:22;19.90;77.20
77985;DHT22;67177;47.240;-1.546;2023-06-10T02:34:47;19.90;77.30
77985;DHT22;67177;47.240;-1.546;2023-06-10T02:37:15;19.90;77.40
77985;DHT22;67177;47.240;-1.546;2023-06-10T02:39:41;19.80;77.40
77985;DHT22;67177;47.240;-1.546;2023-06-10T02:42:06;19.80;77.50
77985;DHT22;67177;47.240;-1.546;2023-06-10T02:44:32;19.80;77.50
77985;DHT22;67177;47.240;-1.546;2023-06-10T02:46:58;19.70;77.60
77985;DHT22;67177;47.240;-1.546;2023-06-10T02:49:24;19.70;77.60
77985;DHT22;67177;47.240;-1.546;2023-06-10T02:51:50;19.70;77.60
77985;DHT22;67177;47.240;-1.546;2023-06-10T02:54:19;19.70;77.60
77985;DHT22;67177;47.240;-1.546;2023-06-10T02:56:45;19.70;77.60
77985;DHT22;67177;47.240;-1.546;2023-06-10T02:59:11;19.60;77.70
77985;DHT22;67177;47.240;-1.546;2023-06-10T03:01:37;19.60;77.70
77985;DHT22;67177;47.240;-1.546;2023-06-10T03:04:05;19.60;77.70
77985;DHT22;67177;47.240;-1.546;2023-06-10T03:06:31;19.60;77.80
77985;DHT22;67177;47.240;-1.546;2023-06-10T03:09:01;19.50;77.80
77985;DHT22;67177;47.240;-1.546;2023-06-10T03:11:27;19.50;77.90
77985;DHT22;67177;47.240;-1.546;2023-06-10T03:13:53;19.50;77.90
77985;DHT22;67177;47.240;-1.546;2023-06-10T03:16:19;19.50;78.00
77985;DHT22;67177;47.240;-1.546;2023-06-10T03:18:45;19.50;78.00
77985;DHT22;67177;47.240;-1.546;2023-06-10T03:21:11;19.50;78.00
77985;DHT22;67177;47.240;-1.546;2023-06-10T03:23:37;19.40;78.00
77985;DHT22;67177;47.240;-1.546;2023-06-10T03:26:04;19.40;78.10
77985;DHT22;67177;47.240;-1.546;2023-06-10T03:28:30;19.40;78.20
77985;DHT22;67177;47.240;-1.546;2023-06-10T03:30:56;19.40;78.20
77985;DHT22;67177;47.240;-1.546;2023-06-10T03:33:22;19.40;78.30
77985;DHT22;67177;47.240;-1.546;2023-06-10T03:35:48;19.30;78.30
77985;DHT22;67177;47.240;-1.546;2023-06-10T03:38:13;19.30;78.30
77985;DHT22;67177;47.240;-1.546;2023-06-10T03:40:39;19.30;78.30
77985;DHT22;67177;47.240;-1.546;2023-06-10T03:43:05;19.30;78.30
77985;DHT22;67177;47.240;-1.546;2023-06-10T03:45:31;19.30;78.30
77985;DHT22;67177;47.240;-1.546;2023-06-10T03:47:57;19.30;78.40
77985;DHT22;67177;47.240;-1.546;2023-06-10T03:50:23;19.30;78.40
77985;DHT22;67177;47.240;-1.546;2023-06-10T03:52:50;19.30;78.40
77985;DHT22;67177;47.240;-1.546;2023-06-10T03:55:16;19.30;78.50
77985;DHT22;67177;47.240;-1.546;2023-06-10T03:57:42;19.20;78.50
77985;DHT22;67177;47.240;-1.546;2023-06-10T04:00:08;19.20;78.60
77985;DHT22;67177;47.240;-1.546;2023-06-10T04:02:38;19.20;78.50
77985;DHT22;67177;47.240;-1.546;2023-06-10T04:05:18;19.20;78.50
77985;DHT22;67177;47.240;-1.546;2023-06-10T04:07:45;19.20;78.50
77985;DHT22;67177;47.240;-1.546;2023-06-10T04:10:14;19.20;78.60
77985;DHT22;67177;47.240;-1.546;2023-06-10T04:12:40;19.10;78.60
77985;DHT22;67177;47.240;-1.546;2023-06-10T04:15:07;19.10;78.70
77985;DHT22;67177;47.240;-1.546;2023-06-10T04:17:32;19.10;78.80
77985;DHT22;67177;47.240;-1.546;2023-06-10T04:19:58;19.10;78.90
77985;DHT22;67177;47.240;-1.546;2023-06-10T04:22:25;19.10;78.90
77985;DHT22;67177;47.240;-1.546;2023-06-10T04:24:51;19.10;78.90
77985;DHT22;67177;47.240;-1.546;2023-06-10T04:27:17;19.00;78.90
77985;DHT22;67177;47.240;-1.546;2023-06-10T04:29:42;19.00;79.00
77985;DHT22;67177;47.240;-1.546;2023-06-10T04:32:08;19.00;79.00
77985;DHT22;67177;47.240;-1.546;2023-06-10T04:34:34;19.00;78.90
77985;DHT22;67177;47.240;-1.546;2023-06-10T04:37:00;19.00;78.90
77985;DHT22;67177;47.240;-1.546;2023-06-10T04:39:25;19.00;79.00
77985;DHT22;67177;47.240;-1.546;2023-06-10T04:41:51;19.00;79.00
77985;DHT22;67177;47.240;-1.546;2023-06-10T04:44:17;19.10;78.90
77985;DHT22;67177;47.240;-1.546;2023-06-10T04:46:44;19.10;79.10
77985;DHT22;67177;47.240;-1.546;2023-06-10T04:49:09;19.10;79.00
77985;DHT22;67177;47.240;-1.546;2023-06-10T04:51:35;19.20;79.10
77985;DHT22;67177;47.240;-1.546;2023-06-10T04:54:01;19.20;79.10
77985;DHT22;67177;47.240;-1.546;2023-06-10T04:56:30;19.30;79.10
77985;DHT22;67177;47.240;-1.546;2023-06-10T04:58:59;19.40;79.00
77985;DHT22;67177;47.240;-1.546;2023-06-10T05:01:25;19.40;78.90
77985;DHT22;67177;47.240;-1.546;2023-06-10T05:03:51;19.50;78.90
77985;DHT22;67177;47.240;-1.546;2023-06-10T05:06:17;19.50;78.80
77985;DHT22;67177;47.240;-1.546;2023-06-10T05:08:42;19.50;78.70
77985;DHT22;67177;47.240;-1.546;2023-06-10T05:11:08;19.60;78.60
77985;DHT22;67177;47.240;-1.546;2023-06-10T05:13:34;19.70;78.60
77985;DHT22;67177;47.240;-1.546;2023-06-10T05:15:59;19.70;78.40
77985;DHT22;67177;47.240;-1.546;2023-06-10T05:18:25;19.80;78.50
77985;DHT22;67177;47.240;-1.546;2023-06-10T05:20:51;19.80;78.30
77985;DHT22;67177;47.240;-1.546;2023-06-10T05:23:16;19.90;78.40
77985;DHT22;67177;47.240;-1.546;2023-06-10T05:25:42;20.00;78.30
77985;DHT22;67177;47.240;-1.546;2023-06-10T05:28:08;20.00;78.30
77985;DHT22;67177;47.240;-1.546;2023-06-10T05:30:36;20.00;78.30
77985;DHT22;67177;47.240;-1.546;2023-06-10T05:33:03;20.00;78.30
77985;DHT22;67177;47.240;-1.546;2023-06-10T05:35:29;20.00;78.30
77985;DHT22;67177;47.240;-1.546;2023-06-10T05:37:55;20.10;78.20
77985;DHT22;67177;47.240;-1.546;2023-06-10T05:40:21;20.20;78.20
77985;DHT22;67177;47.240;-1.546;2023-06-10T05:42:46;20.20;78.10
77985;DHT22;67177;47.240;-1.546;2023-06-10T05:45:12;20.20;78.00
77985;DHT22;67177;47.240;-1.546;2023-06-10T05:47:38;20.30;77.90
77985;DHT22;67177;47.240;-1.546;2023-06-10T05:50:04;20.30;77.80
77985;DHT22;67177;47.240;-1.546;2023-06-10T05:52:33;20.30;77.80
77985;DHT22;67177;47.240;-1.546;2023-06-10T05:54:59;20.40;77.80
77985;DHT22;67177;47.240;-1.546;2023-06-10T05:57:25;20.40;77.70
77985;DHT22;67177;47.240;-1.546;2023-06-10T05:59:51;20.40;77.60
77985;DHT22;67177;47.240;-1.546;2023-06-10T06:02:17;20.40;77.60
77985;DHT22;67177;47.240;-1.546;2023-06-10T06:04:43;20.40;77.70
77985;DHT22;67177;47.240;-1.546;2023-06-10T06:07:08;20.40;77.60
77985;DHT22;67177;47.240;-1.546;2023-06-10T06:09:35;20.40;77.60
77985;DHT22;67177;47.240;-1.546;2023-06-10T06:12:00;20.50;77.50
77985;DHT22;67177;47.240;-1.546;2023-06-10T06:14:26;20.60;77.50
77985;DHT22;67177;47.240;-1.546;2023-06-10T06:16:52;20.60;77.50
77985;DHT22;67177;47.240;-1.546;2023-06-10T06:19:17;20.70;77.30
77985;DHT22;67177;47.240;-1.546;2023-06-10T06:21:43;20.70;77.20
77985;DHT22;67177;47.240;-1.546;2023-06-10T06:24:09;20.70;77.10
77985;DHT22;67177;47.240;-1.546;2023-06-10T06:26:34;20.70;77.10
77985;DHT22;67177;47.240;-1.546;2023-06-10T06:29:00;20.80;76.80
77985;DHT22;67177;47.240;-1.546;2023-06-10T06:31:26;20.80;76.90
77985;DHT22;67177;47.240;-1.546;2023-06-10T06:33:51;20.80;77.00
77985;DHT22;67177;47.240;-1.546;2023-06-10T06:36:17;20.90;76.90
77985;DHT22;67177;47.240;-1.546;2023-06-10T06:38:43;21.00;76.70
77985;DHT22;67177;47.240;-1.546;2023-06-10T06:41:08;21.00;76.70
77985;DHT22;67177;47.240;-1.546;2023-06-10T06:43:34;21.10;76.60
77985;DHT22;67177;47.240;-1.546;2023-06-10T06:46:00;21.10;76.60
77985;DHT22;67177;47.240;-1.546;2023-06-10T06:48:25;21.00;76.70
77985;DHT22;67177;47.240;-1.546;2023-06-10T06:50:51;21.00;76.80
77985;DHT22;67177;47.240;-1.546;2023-06-10T06:53:17;21.00;76.70
77985;DHT22;67177;47.240;-1.546;2023-06-10T06:55:42;21.00;76.50
77985;DHT22;67177;47.240;-1.546;2023-06-10T06:58:08;21.00;76.40
77985;DHT22;67177;47.240;-1.546;2023-06-10T07:00:34;20.90;76.40
77985;DHT22;67177;47.240;-1.546;2023-06-10T07:03:00;20.90;76.40
77985;DHT22;67177;47.240;-1.546;2023-06-10T07:05:25;20.90;76.50
77985;DHT22;67177;47.240;-1.546;2023-06-10T07:07:55;20.90;76.60
77985;DHT22;67177;47.240;-1.546;2023-06-10T07:10:22;20.90;76.50
77985;DHT22;67177;47.240;-1.546;2023-06-10T07:12:48;21.00;76.40
77985;DHT22;67177;47.240;-1.546;2023-06-10T07:15:14;21.00;76.40
77985;DHT22;67177;47.240;-1.546;2023-06-10T07:17:40;21.00;76.50
77985;DHT22;67177;47.240;-1.546;2023-06-10T07:20:06;21.00;76.50
77985;DHT22;67177;47.240;-1.546;2023-06-10T07:22:31;21.10;76.40
77985;DHT22;67177;47.240;-1.546;2023-06-10T07:24:57;21.10;76.20
77985;DHT22;67177;47.240;-1.546;2023-06-10T07:27:23;21.00;76.20
77985;DHT22;67177;47.240;-1.546;2023-06-10T07:29:50;21.00;76.30
77985;DHT22;67177;47.240;-1.546;2023-06-10T07:32:15;21.10;76.20
77985;DHT22;67177;47.240;-1.546;2023-06-10T07:34:41;21.10;76.40
77985;DHT22;67177;47.240;-1.546;2023-06-10T07:37:06;21.10;76.30
77985;DHT22;67177;47.240;-1.546;2023-06-10T07:39:32;21.20;76.30
77985;DHT22;67177;47.240;-1.546;2023-06-10T07:41:58;21.20;76.40
77985;DHT22;67177;47.240;-1.546;2023-06-10T07:44:23;21.20;76.30
77985;DHT22;67177;47.240;-1.546;2023-06-10T07:46:49;21.10;76.30
77985;DHT22;67177;47.240;-1.546;2023-06-10T07:49:15;21.10;76.30
77985;DHT22;67177;47.240;-1.546;2023-06-10T07:51:41;21.20;76.30
77985;DHT22;67177;47.240;-1.546;2023-06-10T07:54:06;21.20;76.40
77985;DHT22;67177;47.240;-1.546;2023-06-10T07:56:32;21.30;76.20
77985;DHT22;67177;47.240;-1.546;2023-06-10T07:58:58;21.50;76.00
77985;DHT22;67177;47.240;-1.546;2023-06-10T08:01:23;21.50;75.80
77985;DHT22;67177;47.240;-1.546;2023-06-10T08:03:49;21.70;75.70
77985;DHT22;67177;47.240;-1.546;2023-06-10T08:06:15;21.90;75.40
77985;DHT22;67177;47.240;-1.546;2023-06-10T08:08:43;22.10;75.00
77985;DHT22;67177;47.240;-1.546;2023-06-10T08:11:10;22.30;74.80
77985;DHT22;67177;47.240;-1.546;2023-06-10T08:13:36;22.20;74.70
77985;DHT22;67177;47.240;-1.546;2023-06-10T08:16:02;22.10;74.80
77985;DHT22;67177;47.240;-1.546;2023-06-10T08:18:28;21.90;74.90
77985;DHT22;67177;47.240;-1.546;2023-06-10T08:20:54;21.80;75.00
77985;DHT22;67177;47.240;-1.546;2023-06-10T08:23:20;21.80;75.10
77985;DHT22;67177;47.240;-1.546;2023-06-10T08:25:46;21.70;75.30
77985;DHT22;67177;47.240;-1.546;2023-06-10T08:28:12;21.70;75.30
77985;DHT22;67177;47.240;-1.546;2023-06-10T08:30:37;21.70;75.40
77985;DHT22;67177;47.240;-1.546;2023-06-10T08:33:03;21.70;75.40
77985;DHT22;67177;47.240;-1.546;2023-06-10T08:35:29;21.60;75.50
77985;DHT22;67177;47.240;-1.546;2023-06-10T08:37:55;21.60;75.60
77985;DHT22;67177;47.240;-1.546;2023-06-10T08:40:21;21.70;75.40
77985;DHT22;67177;47.240;-1.546;2023-06-10T08:43:39;21.80;75.40
77985;DHT22;67177;47.240;-1.546;2023-06-10T08:45:42;21.80;75.30
77985;DHT22;67177;47.240;-1.546;2023-06-10T08:48:10;21.70;75.30
77985;DHT22;67177;47.240;-1.546;2023-06-10T08:50:37;21.70;75.40
77985;DHT22;67177;47.240;-1.546;2023-06-10T08:53:05;21.60;75.50
77985;DHT22;67177;47.240;-1.546;2023-06-10T08:55:42;21.60;75.60
77985;DHT22;67177;47.240;-1.546;2023-06-10T08:58:08;21.60;75.60
77985;DHT22;67177;47.240;-1.546;2023-06-10T09:00:34;21.60;75.50
77985;DHT22;67177;47.240;-1.546;2023-06-10T09:03:01;21.90;75.40
77985;DHT22;67177;47.240;-1.546;2023-06-10T09:05:29;22.30;75.00
77985;DHT22;67177;47.240;-1.546;2023-06-10T09:07:57;22.80;74.40
77985;DHT22;67177;47.240;-1.546;2023-06-10T09:10:22;23.20;73.70
77985;DHT22;67177;47.240;-1.546;2023-06-10T09:12:48;23.40;73.20
77985;DHT22;67177;47.240;-1.546;2023-06-10T09:15:14;23.50;72.90
77985;DHT22;67177;47.240;-1.546;2023-06-10T09:17:42;23.80;72.60
77985;DHT22;67177;47.240;-1.546;2023-06-10T09:20:08;24.20;72.00
77985;DHT22;67177;47.240;-1.546;2023-06-10T09:22:34;24.60;71.30
77985;DHT22;67177;47.240;-1.546;2023-06-10T09:25:08;24.60;70.40
77985;DHT22;67177;47.240;-1.546;2023-06-10T09:27:46;24.70;70.50
77985;DHT22;67177;47.240;-1.546;2023-06-10T09:30:34;25.00;70.00
77985;DHT22;67177;47.240;-1.546;2023-06-10T09:33:02;25.10;68.70
77985;DHT22;67177;47.240;-1.546;2023-06-10T09:35:29;24.90;68.60
77985;DHT22;67177;47.240;-1.546;2023-06-10T09:37:57;24.90;68.60
77985;DHT22;67177;47.240;-1.546;2023-06-10T09:40:23;25.00;68.60
77985;DHT22;67177;47.240;-1.546;2023-06-10T09:43:01;25.00;68.40
77985;DHT22;67177;47.240;-1.546;2023-06-10T09:45:30;24.70;68.60
77985;DHT22;67177;47.240;-1.546;2023-06-10T09:48:00;24.50;68.10
77985;DHT22;67177;47.240;-1.546;2023-06-10T09:50:26;24.50;67.90
77985;DHT22;67177;47.240;-1.546;2023-06-10T09:52:51;24.70;67.70
77985;DHT22;67177;47.240;-1.546;2023-06-10T09:55:17;24.80;67.50
77985;DHT22;67177;47.240;-1.546;2023-06-10T09:57:44;24.90;66.90
77985;DHT22;67177;47.240;-1.546;2023-06-10T10:00:14;25.20;66.80
77985;DHT22;67177;47.240;-1.546;2023-06-10T10:02:47;25.30;66.50
77985;DHT22;67177;47.240;-1.546;2023-06-10T10:05:20;25.00;66.70
77985;DHT22;67177;47.240;-1.546;2023-06-10T10:07:47;24.70;66.70
77985;DHT22;67177;47.240;-1.546;2023-06-10T10:10:14;24.60;66.70
77985;DHT22;67177;47.240;-1.546;2023-06-10T10:12:41;24.40;66.80
77985;DHT22;67177;47.240;-1.546;2023-06-10T10:15:09;24.30;67.00
77985;DHT22;67177;47.240;-1.546;2023-06-10T10:18:00;24.40;66.00
77985;DHT22;67177;47.240;-1.546;2023-06-10T10:20:32;24.40;65.60
77985;DHT22;67177;47.240;-1.546;2023-06-10T10:22:59;24.30;65.10
77985;DHT22;67177;47.240;-1.546;2023-06-10T10:25:39;24.10;64.80
77985;DHT22;67177;47.240;-1.546;2023-06-10T10:28:08;24.10;64.70
77985;DHT22;67177;47.240;-1.546;2023-06-10T10:30:40;24.40;64.40
77985;DHT22;67177;47.240;-1.546;2023-06-10T10:34:00;24.60;64.20
77985;DHT22;67177;47.240;-1.546;2023-06-10T10:36:27;24.80;63.80
77985;DHT22;67177;47.240;-1.546;2023-06-10T10:38:54;24.80;63.80
77985;DHT22;67177;47.240;-1.546;2023-06-10T10:41:20;24.70;63.90
77985;DHT22;67177;47.240;-1.546;2023-06-10T10:43:46;24.60;63.90
77985;DHT22;67177;47.240;-1.546;2023-06-10T10:46:17;24.50;63.70
77985;DHT22;67177;47.240;-1.546;2023-06-10T10:48:43;24.50;63.50
77985;DHT22;67177;47.240;-1.546;2023-06-10T10:51:10;24.50;63.70
77985;DHT22;67177;47.240;-1.546;2023-06-10T10:53:40;24.60;63.30
77985;DHT22;67177;47.240;-1.546;2023-06-10T10:56:13;24.90;62.90
77985;DHT22;67177;47.240;-1.546;2023-06-10T10:58:40;24.90;63.00
77985;DHT22;67177;47.240;-1.546;2023-06-10T11:01:12;24.90;62.70
77985;DHT22;67177;47.240;-1.546;2023-06-10T11:03:45;25.00;62.50
77985;DHT22;67177;47.240;-1.546;2023-06-10T11:06:18;25.00;62.50
77985;DHT22;67177;47.240;-1.546;2023-06-10T11:11:25;25.10;62.00
77985;DHT22;67177;47.240;-1.546;2023-06-10T11:16:30;25.40;61.90
77985;DHT22;67177;47.240;-1.546;2023-06-10T11:18:59;25.20;62.10
77985;DHT22;67177;47.240;-1.546;2023-06-10T11:21:25;25.00;61.70
77985;DHT22;67177;47.240;-1.546;2023-06-10T11:23:51;25.00;61.80
77985;DHT22;67177;47.240;-1.546;2023-06-10T11:34:06;25.30;61.00
77985;DHT22;67177;47.240;-1.546;2023-06-10T11:36:40;25.30;60.90
77985;DHT22;67177;47.240;-1.546;2023-06-10T11:39:08;25.40;60.80
77985;DHT22;67177;47.240;-1.546;2023-06-10T11:41:35;25.40;60.70
77985;DHT22;67177;47.240;-1.546;2023-06-10T11:44:03;25.60;60.30
77985;DHT22;67177;47.240;-1.546;2023-06-10T11:46:29;25.60;60.30
77985;DHT22;67177;47.240;-1.546;2023-06-10T11:48:56;25.60;60.30
77985;DHT22;67177;47.240;-1.546;2023-06-10T11:51:25;25.60;60.10
77985;DHT22;67177;47.240;-1.546;2023-06-10T11:53:52;25.60;59.50
77985;DHT22;67177;47.240;-1.546;2023-06-10T11:59:03;25.60;59.20
77985;DHT22;67177;47.240;-1.546;2023-06-10T12:01:36;25.60;59.20
77985;DHT22;67177;47.240;-1.546;2023-06-10T12:04:03;25.70;59.10
77985;DHT22;67177;47.240;-1.546;2023-06-10T12:06:43;25.90;58.20
77985;DHT22;67177;47.240;-1.546;2023-06-10T12:09:21;26.00;58.20
77985;DHT22;67177;47.240;-1.546;2023-06-10T12:15:00;26.10;58.00
77985;DHT22;67177;47.240;-1.546;2023-06-10T12:19:57;26.20;57.70
77985;DHT22;67177;47.240;-1.546;2023-06-10T12:22:23;26.40;57.40
77985;DHT22;67177;47.240;-1.546;2023-06-10T12:25:00;26.50;57.50
77985;DHT22;67177;47.240;-1.546;2023-06-10T12:27:27;26.40;57.70
77985;DHT22;67177;47.240;-1.546;2023-06-10T12:29:55;26.30;57.90
77985;DHT22;67177;47.240;-1.546;2023-06-10T12:32:22;26.50;57.90
77985;DHT22;67177;47.240;-1.546;2023-06-10T12:35:02;26.70;57.30
77985;DHT22;67177;47.240;-1.546;2023-06-10T12:37:29;26.80;57.30
77985;DHT22;67177;47.240;-1.546;2023-06-10T12:39:55;26.90;57.10
77985;DHT22;67177;47.240;-1.546;2023-06-10T12:42:25;26.90;57.20
77985;DHT22;67177;47.240;-1.546;2023-06-10T12:44:53;26.90;57.30
77985;DHT22;67177;47.240;-1.546;2023-06-10T12:47:19;27.00;57.00
77985;DHT22;67177;47.240;-1.546;2023-06-10T12:49:45;26.90;57.00
77985;DHT22;67177;47.240;-1.546;2023-06-10T12:52:10;26.80;57.20
77985;DHT22;67177;47.240;-1.546;2023-06-10T12:54:36;26.70;56.80
77985;DHT22;67177;47.240;-1.546;2023-06-10T12:57:02;26.60;56.90
77985;DHT22;67177;47.240;-1.546;2023-06-10T12:59:28;26.50;57.20
77985;DHT22;67177;47.240;-1.546;2023-06-10T13:01:55;26.40;57.10
77985;DHT22;67177;47.240;-1.546;2023-06-10T13:04:21;26.20;57.10
77985;DHT22;67177;47.240;-1.546;2023-06-10T13:06:47;26.20;57.10
77985;DHT22;67177;47.240;-1.546;2023-06-10T13:09:15;26.30;57.20
77985;DHT22;67177;47.240;-1.546;2023-06-10T13:11:41;26.20;57.20
77985;DHT22;67177;47.240;-1.546;2023-06-10T13:14:08;26.10;57.40
77985;DHT22;67177;47.240;-1.546;2023-06-10T13:16:35;26.00;57.50
77985;DHT22;67177;47.240;-1.546;2023-06-10T13:19:03;25.90;57.20
77985;DHT22;67177;47.240;-1.546;2023-06-10T13:21:35;25.90;57.30
77985;DHT22;67177;47.240;-1.546;2023-06-10T13:24:00;25.80;57.60
77985;DHT22;67177;47.240;-1.546;2023-06-10T13:26:26;25.80;57.20
77985;DHT22;67177;47.240;-1.546;2023-06-10T13:28:52;25.80;56.80
77985;DHT22;67177;47.240;-1.546;2023-06-10T13:31:18;25.80;56.80
77985;DHT22;67177;47.240;-1.546;2023-06-10T13:33:44;25.70;56.70
77985;DHT22;67177;47.240;-1.546;2023-06-10T13:36:10;25.70;56.60
77985;DHT22;67177;47.240;-1.546;2023-06-10T13:38:36;25.70;56.00
77985;DHT22;67177;47.240;-1.546;2023-06-10T13:41:01;25.70;55.20
77985;DHT22;67177;47.240;-1.546;2023-06-10T13:43:27;25.70;55.10
77985;DHT22;67177;47.240;-1.546;2023-06-10T13:45:54;25.70;55.00
77985;DHT22;67177;47.240;-1.546;2023-06-10T13:48:20;25.60;55.10
77985;DHT22;67177;47.240;-1.546;2023-06-10T13:50:45;25.60;54.80
77985;DHT22;67177;47.240;-1.546;2023-06-10T13:53:12;25.60;54.90
77985;DHT22;67177;47.240;-1.546;2023-06-10T13:55:37;25.60;55.10
77985;DHT22;67177;47.240;-1.546;2023-06-10T13:58:03;25.60;55.00
77985;DHT22;67177;47.240;-1.546;2023-06-10T14:00:29;25.70;54.90
77985;DHT22;67177;47.240;-1.546;2023-06-10T14:02:55;25.70;53.60
77985;DHT22;67177;47.240;-1.546;2023-06-10T14:05:20;25.80;53.30
77985;DHT22;67177;47.240;-1.546;2023-06-10T14:07:46;25.80;53.40
77985;DHT22;67177;47.240;-1.546;2023-06-10T14:10:12;25.80;53.50
77985;DHT22;67177;47.240;-1.546;2023-06-10T14:12:37;25.80;53.50
77985;DHT22;67177;47.240;-1.546;2023-06-10T14:15:03;25.80;53.10
77985;DHT22;67177;47.240;-1.546;2023-06-10T14:17:29;25.80;52.80
77985;DHT22;67177;47.240;-1.546;2023-06-10T14:19:55;25.80;52.80
77985;DHT22;67177;47.240;-1.546;2023-06-10T14:22:20;25.90;51.80
77985;DHT22;67177;47.240;-1.546;2023-06-10T14:24:46;25.90;51.80
77985;DHT22;67177;47.240;-1.546;2023-06-10T14:27:12;25.90;52.00
77985;DHT22;67177;47.240;-1.546;2023-06-10T14:29:38;25.90;51.80
77985;DHT22;67177;47.240;-1.546;2023-06-10T14:32:04;25.90;51.80
77985;DHT22;67177;47.240;-1.546;2023-06-10T14:34:30;25.90;51.80
77985;DHT22;67177;47.240;-1.546;2023-06-10T14:36:59;25.90;51.90
77985;DHT22;67177;47.240;-1.546;2023-06-10T14:39:25;25.90;52.10
77985;DHT22;67177;47.240;-1.546;2023-06-10T14:41:51;25.90;51.80
77985;DHT22;67177;47.240;-1.546;2023-06-10T14:44:18;25.90;51.90
77985;DHT22;67177;47.240;-1.546;2023-06-10T14:46:44;25.80;52.10
77985;DHT22;67177;47.240;-1.546;2023-06-10T14:49:09;25.80;52.30
77985;DHT22;67177;47.240;-1.546;2023-06-10T14:51:35;25.80;52.40
77985;DHT22;67177;47.240;-1.546;2023-06-10T14:54:01;25.90;52.40
77985;DHT22;67177;47.240;-1.546;2023-06-10T14:56:27;25.90;52.60
77985;DHT22;67177;47.240;-1.546;2023-06-10T14:58:52;25.90;53.20
77985;DHT22;67177;47.240;-1.546;2023-06-10T15:01:18;25.90;53.50
77985;DHT22;67177;47.240;-1.546;2023-06-10T15:03:44;25.80;53.70
77985;DHT22;67177;47.240;-1.546;2023-06-10T15:06:10;25.80;53.80
77985;DHT22;67177;47.240;-1.546;2023-06-10T15:08:35;25.80;54.20
77985;DHT22;67177;47.240;-1.546;2023-06-10T15:11:01;25.80;54.50
77985;DHT22;67177;47.240;-1.546;2023-06-10T15:13:27;25.80;54.60
77985;DHT22;67177;47.240;-1.546;2023-06-10T15:15:53;25.80;54.70
77985;DHT22;67177;47.240;-1.546;2023-06-10T15:18:19;25.80;54.70
77985;DHT22;67177;47.240;-1.546;2023-06-10T15:20:44;25.70;54.60
77985;DHT22;67177;47.240;-1.546;2023-06-10T15:23:10;25.70;54.70
77985;DHT22;67177;47.240;-1.546;2023-06-10T15:25:36;25.80;54.80
77985;DHT22;67177;47.240;-1.546;2023-06-10T15:28:01;25.80;54.90
77985;DHT22;67177;47.240;-1.546;2023-06-10T15:30:27;25.80;54.80
77985;DHT22;67177;47.240;-1.546;2023-06-10T15:32:53;25.80;54.30
77985;DHT22;67177;47.240;-1.546;2023-06-10T15:35:18;25.80;54.20
77985;DHT22;67177;47.240;-1.546;2023-06-10T15:37:44;25.80;54.50
77985;DHT22;67177;47.240;-1.546;2023-06-10T15:40:10;25.80;54.60